createdAt,value
2019-03-01T00:01:21.576Z,14.60
2019-03-01T00:04:08.676Z,14.50
2019-03-01T00:07:10.621Z,14.50
2019-03-01T00:09:54.954Z,14.60
2019-03-01T00:12:57.002Z,14.60
2019-03-01T00:16:05.030Z,14.50
2019-03-01T00:18:59.754Z,14.50
2019-03-01T00:22:16.986Z,14.60
2019-03-01T00:25:32.283Z,14.50
2019-03-01T00:28:43.191Z,14.40
2019-03-01T00:31:34.546Z,14.40
2019-03-01T00:34:55.009Z,14.50
2019-03-01T00:38:05.744Z,14.40
2019-03-01T00:41:21.640Z,14.30
2019-03-01T00:44:20.718Z,14.20
2019-03-01T00:46:51.956Z,14.20
2019-03-01T00:49:24.260Z,14.10
2019-03-01T00:51:55.507Z,14.10
2019-03-01T00:54:26.773Z,14.10
2019-03-01T00:56:58.048Z,14.20
2019-03-01T00:59:29.232Z,14.20
2019-03-01T01:02:00.245Z,14.20
2019-03-01T01:04:31.651Z,14.20
2019-03-01T01:07:02.739Z,14.20
2019-03-01T01:09:34.709Z,14.10
2019-03-01T01:12:06.744Z,14.20
2019-03-01T01:14:38.981Z,14.10
2019-03-01T01:17:11.299Z,14.00
2019-03-01T01:19:43.268Z,14.00
2019-03-01T01:22:14.449Z,14.00
2019-03-01T01:24:45.362Z,14.00
2019-03-01T01:27:16.399Z,13.90
2019-03-01T01:29:47.450Z,13.90
2019-03-01T01:32:18.592Z,13.90
2019-03-01T01:34:49.736Z,13.90
2019-03-01T01:37:21.184Z,14.00
2019-03-01T01:39:51.868Z,14.00
2019-03-01T01:42:22.922Z,13.90
2019-03-01T01:44:53.967Z,13.90
2019-03-01T01:47:25.092Z,13.90
2019-03-01T01:49:56.880Z,13.90
2019-03-01T01:52:28.017Z,13.80
2019-03-01T01:54:59.031Z,13.90
2019-03-01T01:57:30.126Z,14.00
2019-03-01T02:00:01.273Z,14.00
2019-03-01T02:02:32.572Z,13.90
2019-03-01T02:05:04.322Z,14.00
2019-03-01T02:07:35.988Z,14.00
2019-03-01T02:10:07.998Z,14.00
2019-03-01T02:12:39.224Z,14.10
2019-03-01T02:15:16.733Z,14.10
2019-03-01T02:17:47.469Z,14.10
2019-03-01T02:20:18.653Z,14.00
2019-03-01T02:22:49.297Z,14.00
2019-03-01T02:25:20.617Z,13.90
2019-03-01T02:27:51.820Z,13.90
2019-03-01T02:30:24.831Z,13.90
2019-03-01T02:32:55.927Z,13.70
2019-03-01T02:35:28.000Z,13.70
2019-03-01T02:37:58.963Z,13.50
2019-03-01T02:40:30.176Z,13.40
2019-03-01T02:43:01.218Z,13.30
2019-03-01T02:45:32.850Z,13.20
2019-03-01T02:48:03.889Z,13.10
2019-03-01T02:50:35.097Z,13.00
2019-03-01T02:53:06.490Z,12.90
2019-03-01T02:55:38.753Z,12.90
2019-03-01T02:58:09.795Z,12.90
2019-03-01T03:00:41.437Z,12.90
2019-03-01T03:03:12.460Z,12.90
2019-03-01T03:06:02.479Z,12.90
2019-03-01T03:08:33.967Z,13.00
2019-03-01T03:11:05.476Z,13.00
2019-03-01T03:13:36.580Z,13.00
2019-03-01T03:16:07.870Z,12.80
2019-03-01T03:18:39.482Z,12.80
2019-03-01T03:21:10.709Z,12.80
2019-03-01T03:23:41.897Z,12.70
2019-03-01T03:26:13.045Z,12.60
2019-03-01T03:28:44.143Z,12.50
2019-03-01T03:31:15.475Z,12.50
2019-03-01T03:33:46.208Z,12.60
2019-03-01T03:36:17.272Z,12.80
2019-03-01T03:38:47.834Z,12.80
2019-03-01T03:41:19.050Z,12.80
2019-03-01T03:43:49.986Z,12.80
2019-03-01T03:46:20.952Z,12.80
2019-03-01T03:48:51.943Z,12.80
2019-03-01T03:51:23.042Z,12.80
2019-03-01T03:53:54.078Z,12.80
2019-03-01T03:56:25.227Z,12.90
2019-03-01T03:58:56.204Z,12.90
2019-03-01T04:01:27.252Z,12.90
2019-03-01T04:03:58.526Z,12.80
2019-03-01T04:06:29.489Z,12.80
2019-03-01T04:09:00.565Z,12.80
2019-03-01T04:11:34.210Z,12.80
2019-03-01T04:14:05.231Z,12.70
2019-03-01T04:16:36.146Z,12.40
2019-03-01T04:19:07.302Z,12.40
2019-03-01T04:21:39.281Z,12.50
2019-03-01T04:24:10.552Z,12.60
2019-03-01T04:26:41.700Z,12.70
2019-03-01T04:29:13.052Z,12.60
2019-03-01T04:31:44.324Z,12.60
2019-03-01T04:34:15.636Z,12.60
2019-03-01T04:36:46.618Z,12.50
2019-03-01T04:39:17.572Z,12.50
2019-03-01T04:41:52.173Z,12.50
2019-03-01T04:44:23.591Z,12.40
2019-03-01T04:46:54.940Z,12.40
2019-03-01T04:49:25.872Z,12.30
2019-03-01T04:51:56.774Z,12.30
2019-03-01T04:54:28.038Z,12.20
2019-03-01T04:56:59.170Z,12.20
2019-03-01T04:59:30.319Z,12.10
2019-03-01T05:02:01.424Z,12.00
2019-03-01T05:04:40.738Z,12.10
2019-03-01T05:07:12.382Z,12.20
2019-03-01T05:09:43.410Z,12.20
2019-03-01T05:12:14.556Z,12.40
2019-03-01T05:14:45.922Z,12.40
2019-03-01T05:17:17.255Z,12.30
2019-03-01T05:19:47.916Z,12.30
2019-03-01T05:22:19.039Z,12.10
2019-03-01T05:24:49.888Z,12.00
2019-03-01T05:27:21.049Z,12.10
2019-03-01T05:29:51.716Z,12.00
2019-03-01T05:32:23.274Z,12.20
2019-03-01T05:34:53.863Z,12.00
2019-03-01T05:37:46.147Z,12.00
2019-03-01T05:40:17.420Z,12.00
2019-03-01T05:42:48.774Z,12.00
2019-03-01T05:45:21.647Z,12.10
2019-03-01T05:47:52.320Z,12.20
2019-03-01T05:50:23.409Z,12.20
2019-03-01T05:52:54.424Z,12.30
2019-03-01T05:55:28.829Z,12.30
2019-03-01T05:58:33.738Z,12.30
2019-03-01T06:01:28.875Z,12.30
2019-03-01T06:04:18.867Z,12.30
2019-03-01T06:07:20.817Z,12.30
2019-03-01T06:10:35.069Z,12.20
2019-03-01T06:14:11.333Z,12.30
2019-03-01T06:17:32.075Z,12.30
2019-03-01T06:20:32.904Z,12.30
2019-03-01T06:23:30.087Z,12.30
2019-03-01T06:26:44.231Z,12.30
2019-03-01T06:29:46.370Z,12.40
2019-03-01T06:32:58.549Z,12.40
2019-03-01T06:36:32.598Z,12.50
2019-03-01T06:39:53.274Z,12.50
2019-03-01T06:42:59.859Z,12.50
2019-03-01T06:46:13.721Z,12.60
2019-03-01T06:48:53.063Z,12.70
2019-03-01T06:51:29.122Z,12.70
2019-03-01T06:53:59.785Z,12.70
2019-03-01T06:56:30.997Z,12.80
2019-03-01T06:59:03.969Z,12.90
2019-03-01T07:01:48.088Z,13.00
2019-03-01T07:04:19.832Z,13.10
2019-03-01T07:07:07.158Z,13.10
2019-03-01T07:09:38.385Z,13.20
2019-03-01T07:12:09.342Z,13.20
2019-03-01T07:14:40.328Z,13.20
2019-03-01T07:17:11.703Z,13.20
2019-03-01T07:19:42.726Z,13.30
2019-03-01T07:22:14.060Z,13.20
2019-03-01T07:24:45.369Z,13.30
2019-03-01T07:27:16.367Z,13.30
2019-03-01T07:29:47.751Z,13.40
2019-03-01T07:32:19.702Z,13.40
2019-03-01T07:34:50.434Z,13.50
2019-03-01T07:37:22.002Z,13.60
2019-03-01T07:39:52.741Z,14.00
2019-03-01T07:42:24.223Z,15.00
2019-03-01T07:44:55.384Z,15.80
2019-03-01T07:47:26.651Z,16.50
2019-03-01T07:49:58.717Z,17.30
2019-03-01T07:52:30.037Z,17.80
2019-03-01T07:55:01.365Z,18.30
2019-03-01T07:57:33.625Z,18.60
2019-03-01T08:00:05.291Z,18.30
2019-03-01T08:02:39.766Z,17.90
2019-03-01T08:05:10.732Z,18.40
2019-03-01T08:07:41.747Z,17.40
2019-03-01T08:10:13.197Z,16.70
2019-03-01T08:12:47.806Z,17.20
2019-03-01T08:15:18.936Z,17.60
2019-03-01T08:17:50.438Z,17.60
2019-03-01T08:20:21.729Z,17.40
2019-03-01T08:22:53.076Z,17.30
2019-03-01T08:25:24.732Z,17.10
2019-03-01T08:27:55.797Z,17.00
2019-03-01T08:30:27.241Z,16.80
2019-03-01T08:32:58.323Z,16.70
2019-03-01T08:35:31.971Z,16.50
2019-03-01T08:38:02.509Z,16.20
2019-03-01T08:40:33.611Z,16.20
2019-03-01T08:43:04.596Z,16.30
2019-03-01T08:45:35.927Z,16.20
2019-03-01T08:48:08.821Z,16.60
2019-03-01T08:50:40.970Z,16.40
2019-03-01T08:53:15.136Z,16.60
2019-03-01T08:55:45.121Z,16.60
2019-03-01T08:58:17.002Z,16.70
2019-03-01T09:00:47.977Z,16.60
2019-03-01T09:03:30.475Z,16.50
2019-03-01T09:06:01.484Z,16.30
2019-03-01T09:08:33.112Z,16.20
2019-03-01T09:11:05.500Z,16.10
2019-03-01T09:13:37.243Z,16.20
2019-03-01T09:16:08.866Z,16.10
2019-03-01T09:18:40.080Z,16.30
2019-03-01T09:21:12.967Z,16.40
2019-03-01T09:23:44.061Z,16.40
2019-03-01T09:26:16.637Z,16.40
2019-03-01T09:28:49.367Z,16.30
2019-03-01T09:31:20.911Z,16.30
2019-03-01T09:33:53.711Z,16.20
2019-03-01T09:36:35.088Z,15.80
2019-03-01T09:39:09.913Z,16.20
2019-03-01T09:41:41.612Z,16.40
2019-03-01T09:44:12.882Z,16.30
2019-03-01T09:46:44.293Z,16.40
2019-03-01T09:49:15.477Z,16.30
2019-03-01T09:51:49.920Z,16.40
2019-03-01T09:54:19.862Z,16.30
2019-03-01T09:56:53.014Z,16.40
2019-03-01T09:59:24.646Z,16.60
2019-03-01T10:01:55.332Z,16.40
2019-03-01T10:04:26.592Z,16.40
2019-03-01T10:06:57.560Z,16.50
2019-03-01T10:09:28.504Z,16.60
2019-03-01T10:11:59.815Z,16.50
2019-03-01T10:14:35.846Z,16.60
2019-03-01T10:17:06.876Z,16.50
2019-03-01T10:19:37.952Z,16.70
2019-03-01T10:22:09.336Z,16.70
2019-03-01T10:24:40.755Z,16.70
2019-03-01T10:27:12.994Z,16.10
2019-03-01T10:29:44.093Z,16.30
2019-03-01T10:32:15.212Z,16.60
2019-03-01T10:34:47.481Z,16.80
2019-03-01T10:37:18.518Z,16.80
2019-03-01T10:39:55.330Z,16.70
2019-03-01T10:42:22.112Z,16.50
2019-03-01T10:44:52.995Z,16.40
2019-03-01T10:47:24.349Z,16.70
2019-03-01T10:49:55.311Z,16.80
2019-03-01T10:52:26.113Z,16.70
2019-03-01T10:54:57.329Z,16.60
2019-03-01T10:57:28.515Z,16.30
2019-03-01T10:59:59.713Z,16.40
2019-03-01T11:02:30.495Z,16.30
2019-03-01T11:05:02.912Z,16.50
2019-03-01T11:07:34.079Z,16.70
2019-03-01T11:10:05.724Z,16.80
2019-03-01T11:12:37.089Z,16.60
2019-03-01T11:15:09.493Z,16.40
2019-03-01T11:17:40.642Z,16.60
2019-03-01T11:20:14.184Z,16.80
2019-03-01T11:22:45.611Z,16.70
2019-03-01T11:25:17.742Z,16.70
2019-03-01T11:27:49.079Z,16.60
2019-03-01T11:30:22.351Z,16.60
2019-03-01T11:32:53.833Z,16.80
2019-03-01T11:35:25.085Z,16.60
2019-03-01T11:37:55.823Z,16.60
2019-03-01T11:40:31.832Z,16.70
2019-03-01T11:43:03.153Z,16.70
2019-03-01T11:45:34.597Z,16.60
2019-03-01T11:48:05.970Z,16.60
2019-03-01T11:50:38.064Z,16.70
2019-03-01T11:53:09.233Z,16.80
2019-03-01T11:55:40.512Z,16.80
2019-03-01T11:58:11.637Z,17.00
2019-03-01T12:00:52.132Z,17.10
2019-03-01T12:03:19.014Z,17.30
2019-03-01T12:05:49.737Z,17.30
2019-03-01T12:08:21.102Z,17.30
2019-03-01T12:10:51.926Z,17.10
2019-03-01T12:13:23.206Z,17.10
2019-03-01T12:15:53.912Z,17.10
2019-03-01T12:18:25.196Z,17.30
2019-03-01T12:20:56.513Z,17.50
2019-03-01T12:23:27.757Z,17.20
2019-03-01T12:25:59.357Z,17.10
2019-03-01T12:28:31.587Z,17.40
2019-03-01T12:31:02.846Z,17.80
2019-03-01T12:33:34.166Z,17.80
2019-03-01T12:36:05.490Z,17.60
2019-03-01T12:38:36.561Z,17.80
2019-03-01T12:41:07.819Z,17.40
2019-03-01T12:43:40.334Z,17.20
2019-03-01T12:46:11.399Z,17.30
2019-03-01T12:48:42.561Z,17.60
2019-03-01T12:51:13.963Z,17.60
2019-03-01T12:53:45.383Z,17.40
2019-03-01T12:56:16.609Z,17.40
2019-03-01T12:58:47.562Z,17.60
2019-03-01T13:01:18.760Z,17.70
2019-03-01T13:03:49.476Z,17.90
2019-03-01T13:06:20.540Z,17.50
2019-03-01T13:08:52.334Z,17.30
2019-03-01T13:11:23.516Z,17.40
2019-03-01T13:13:54.266Z,16.90
2019-03-01T13:16:26.739Z,17.10
2019-03-01T13:18:59.590Z,16.90
2019-03-01T13:21:32.629Z,17.10
2019-03-01T13:24:03.631Z,17.10
2019-03-01T13:26:37.714Z,17.30
2019-03-01T13:29:07.968Z,17.90
2019-03-01T13:31:39.246Z,18.30
2019-03-01T13:34:13.614Z,18.20
2019-03-01T13:36:43.685Z,18.00
2019-03-01T13:39:14.720Z,17.90
2019-03-01T13:41:48.018Z,18.00
2019-03-01T13:44:18.356Z,17.70
2019-03-01T13:46:52.791Z,17.50
2019-03-01T13:49:26.807Z,17.50
2019-03-01T13:51:56.495Z,17.20
2019-03-01T13:54:27.577Z,17.40
2019-03-01T13:56:58.583Z,17.50
2019-03-01T13:59:29.619Z,17.60
2019-03-01T14:02:00.684Z,17.00
2019-03-01T14:04:31.707Z,17.30
2019-03-01T14:07:02.707Z,17.70
2019-03-01T14:09:34.539Z,17.80
2019-03-01T14:12:05.924Z,17.90
2019-03-01T14:14:37.120Z,18.70
2019-03-01T14:17:08.453Z,18.60
2019-03-01T14:19:42.216Z,18.90
2019-03-01T14:22:14.021Z,18.40
2019-03-01T14:24:45.109Z,17.80
2019-03-01T14:27:16.407Z,17.50
2019-03-01T14:29:54.058Z,17.80
2019-03-01T14:32:25.233Z,18.10
2019-03-01T14:34:55.859Z,17.80
2019-03-01T14:37:27.043Z,17.90
2019-03-01T14:39:59.031Z,17.80
2019-03-01T14:42:30.182Z,17.30
2019-03-01T14:45:01.608Z,17.30
2019-03-01T14:47:33.698Z,17.00
2019-03-01T14:50:04.831Z,17.30
2019-03-01T14:52:35.860Z,17.30
2019-03-01T14:55:08.147Z,17.20
2019-03-01T14:57:46.181Z,17.20
2019-03-01T15:00:23.303Z,17.30
2019-03-01T15:03:33.483Z,17.40
2019-03-01T15:06:05.041Z,17.40
2019-03-01T15:08:36.217Z,17.20
2019-03-01T15:11:10.715Z,17.00
2019-03-01T15:13:42.299Z,16.70
2019-03-01T15:16:13.972Z,16.90
2019-03-01T15:18:45.371Z,16.70
2019-03-01T15:21:16.771Z,17.00
2019-03-01T15:23:48.555Z,16.80
2019-03-01T15:26:19.632Z,16.40
2019-03-01T15:28:56.000Z,16.40
2019-03-01T15:31:27.133Z,16.70
2019-03-01T15:33:58.040Z,16.80
2019-03-01T15:36:29.384Z,16.70
2019-03-01T15:39:00.409Z,16.50
2019-03-01T15:41:33.072Z,16.60
2019-03-01T15:44:04.429Z,16.60
2019-03-01T15:46:35.637Z,16.50
2019-03-01T15:49:06.800Z,16.60
2019-03-01T15:51:46.303Z,16.70
2019-03-01T15:54:17.609Z,16.50
2019-03-01T15:56:48.464Z,16.40
2019-03-01T15:59:19.752Z,16.50
2019-03-01T16:01:50.417Z,16.40
2019-03-01T16:04:23.403Z,16.20
2019-03-01T16:06:56.463Z,16.00
2019-03-01T16:09:26.765Z,16.10
2019-03-01T16:11:57.855Z,16.30
2019-03-01T16:14:29.711Z,16.40
2019-03-01T16:17:00.848Z,16.20
2019-03-01T16:19:32.096Z,15.90
2019-03-01T16:22:03.203Z,15.80
2019-03-01T16:24:34.609Z,15.80
2019-03-01T16:27:08.585Z,16.00
2019-03-01T16:29:42.093Z,16.00
2019-03-01T16:32:12.113Z,15.90
2019-03-01T16:34:43.276Z,15.80
2019-03-01T16:37:15.671Z,16.00
2019-03-01T16:39:46.948Z,16.00
2019-03-01T16:42:18.893Z,16.00
2019-03-01T16:44:50.051Z,15.90
2019-03-01T16:47:23.223Z,16.10
2019-03-01T16:49:55.522Z,16.10
2019-03-01T16:52:30.215Z,16.00
2019-03-01T16:55:01.599Z,15.90
2019-03-01T16:57:33.032Z,15.90
2019-03-01T17:00:06.433Z,15.90
2019-03-01T17:02:41.995Z,16.00
2019-03-01T17:05:11.974Z,16.00
2019-03-01T17:07:43.144Z,15.90
2019-03-01T17:10:15.712Z,15.90
2019-03-01T17:12:48.889Z,15.50
2019-03-01T17:15:22.267Z,15.30
2019-03-01T17:17:53.722Z,15.30
2019-03-01T17:20:25.206Z,15.40
2019-03-01T17:22:59.529Z,15.40
2019-03-01T17:25:29.104Z,15.30
2019-03-01T17:28:00.305Z,15.30
2019-03-01T17:30:31.904Z,15.20
2019-03-01T17:33:03.078Z,15.00
2019-03-01T17:35:37.678Z,14.80
2019-03-01T17:38:08.501Z,14.90
2019-03-01T17:40:39.951Z,14.90
2019-03-01T17:43:10.974Z,14.80
2019-03-01T17:45:41.928Z,14.90
2019-03-01T17:48:13.034Z,14.90
2019-03-01T17:58:10.991Z,14.70
2019-03-01T18:00:53.145Z,14.60
2019-03-01T18:03:24.979Z,14.50
2019-03-01T18:05:59.521Z,14.50
2019-03-01T18:08:30.679Z,14.60
2019-03-01T18:11:02.042Z,14.60
2019-03-01T18:13:33.472Z,14.70
2019-03-01T18:16:04.545Z,14.60
2019-03-01T18:18:36.124Z,14.50
2019-03-01T18:21:10.188Z,14.50
2019-03-01T18:23:40.342Z,14.60
2019-03-01T18:26:11.607Z,14.60
2019-03-01T18:28:43.203Z,14.60
2019-03-01T18:31:14.935Z,14.60
2019-03-01T18:33:46.052Z,14.60
2019-03-01T18:36:17.176Z,14.50
2019-03-01T18:38:49.376Z,14.40
2019-03-01T18:41:20.342Z,14.50
2019-03-01T18:43:51.143Z,14.60
2019-03-01T18:46:22.471Z,14.70
2019-03-01T18:48:53.346Z,14.60
2019-03-01T18:51:24.300Z,14.60
2019-03-01T18:53:55.342Z,14.60
2019-03-01T18:56:28.621Z,14.60
2019-03-01T18:58:59.170Z,14.50
2019-03-01T19:01:30.443Z,14.50
2019-03-01T19:04:01.776Z,14.50
2019-03-01T19:06:38.153Z,14.50
2019-03-01T19:09:12.604Z,14.50
2019-03-01T19:11:43.659Z,14.50
2019-03-01T19:14:14.870Z,14.50
2019-03-01T19:16:47.210Z,14.50
2019-03-01T19:19:19.614Z,14.50
2019-03-01T19:21:52.743Z,14.50
2019-03-01T19:24:22.990Z,14.50
2019-03-01T19:26:54.508Z,14.50
2019-03-01T19:29:25.802Z,14.50
2019-03-01T19:31:57.259Z,14.50
2019-03-01T19:34:28.250Z,14.50
2019-03-01T19:36:59.862Z,14.50
2019-03-01T19:39:32.602Z,14.50
2019-03-01T19:42:04.037Z,14.50
2019-03-01T19:44:35.399Z,14.50
2019-03-01T19:47:06.915Z,14.50
2019-03-01T19:49:38.599Z,14.40
2019-03-01T19:52:12.163Z,14.50
2019-03-01T19:54:44.621Z,14.50
2019-03-01T19:57:15.876Z,14.60
2019-03-01T19:59:49.623Z,14.50
2019-03-01T20:02:19.662Z,14.60
2019-03-01T20:04:52.589Z,14.70
2019-03-01T20:07:24.221Z,14.70
2019-03-01T20:09:55.041Z,14.60
2019-03-01T20:12:26.480Z,14.60
2019-03-01T20:14:57.598Z,14.60
2019-03-01T20:17:30.380Z,14.50
2019-03-01T20:20:02.085Z,14.40
2019-03-01T20:22:35.838Z,14.50
2019-03-01T20:25:07.757Z,14.60
2019-03-01T20:27:40.267Z,14.70
2019-03-01T20:30:14.449Z,14.70
2019-03-01T20:32:51.014Z,14.60
2019-03-01T20:35:23.076Z,14.60
2019-03-01T20:37:54.367Z,14.70
2019-03-01T20:40:26.577Z,14.70
2019-03-01T20:43:01.251Z,14.60
2019-03-01T20:45:31.436Z,14.60
2019-03-01T20:48:02.686Z,14.50
2019-03-01T20:50:34.097Z,14.50
2019-03-01T20:53:05.762Z,14.50
2019-03-01T20:55:38.395Z,14.40
2019-03-01T20:58:10.369Z,14.40
2019-03-01T21:00:41.462Z,14.40
2019-03-01T21:03:12.981Z,14.30
2019-03-01T21:05:44.281Z,14.30
2019-03-01T21:08:20.367Z,14.30
2019-03-01T21:10:52.219Z,14.30
2019-03-01T21:13:30.218Z,14.30
2019-03-01T21:16:01.753Z,14.20
2019-03-01T21:18:34.094Z,14.30
2019-03-01T21:21:06.027Z,14.30
2019-03-01T21:23:37.185Z,14.20
2019-03-01T21:26:08.138Z,14.20
2019-03-01T21:28:39.474Z,14.20
2019-03-01T21:31:11.034Z,14.20
2019-03-01T21:33:43.347Z,14.20
2019-03-01T21:36:14.658Z,14.20
2019-03-01T21:38:49.234Z,14.20
2019-03-01T21:41:19.321Z,14.20
2019-03-01T21:43:50.223Z,14.30
2019-03-01T21:46:21.890Z,14.40
2019-03-01T21:48:52.565Z,14.40
2019-03-01T21:51:23.658Z,14.30
2019-03-01T21:53:54.907Z,14.40
2019-03-01T21:56:26.227Z,14.50
2019-03-01T21:58:57.690Z,14.40
2019-03-01T22:01:29.490Z,14.30
2019-03-01T22:04:02.479Z,14.30
2019-03-01T22:06:33.660Z,14.20
2019-03-01T22:09:07.863Z,14.20
2019-03-01T22:11:40.045Z,14.20
2019-03-01T22:14:14.140Z,14.30
2019-03-01T22:16:44.666Z,14.30
2019-03-01T22:19:15.885Z,14.30
2019-03-01T22:21:47.220Z,14.30
2019-03-01T22:24:18.562Z,14.30
2019-03-01T22:26:50.343Z,14.30
2019-03-01T22:29:21.529Z,14.30
2019-03-01T22:31:52.380Z,14.30
2019-03-01T22:34:23.429Z,14.40
2019-03-01T22:36:55.176Z,14.40
2019-03-01T22:39:27.435Z,14.50
2019-03-01T22:41:58.305Z,14.40
2019-03-01T22:44:36.353Z,14.40
2019-03-01T22:47:05.958Z,14.30
2019-03-01T22:49:37.725Z,14.30
2019-03-01T22:52:08.842Z,14.40
2019-03-01T22:54:40.063Z,14.30
2019-03-01T22:57:11.350Z,14.40
2019-03-01T22:59:43.661Z,14.40
2019-03-01T23:02:19.986Z,14.40
2019-03-01T23:04:50.615Z,14.30
2019-03-01T23:07:23.544Z,14.30
2019-03-01T23:09:54.695Z,14.30
2019-03-01T23:12:30.139Z,14.40
2019-03-01T23:15:02.914Z,14.40
2019-03-01T23:17:35.704Z,14.30
2019-03-01T23:20:07.771Z,14.20
2019-03-01T23:22:38.957Z,14.20
2019-03-01T23:25:10.791Z,14.10
2019-03-01T23:27:42.843Z,14.10
2019-03-01T23:30:14.292Z,14.10
2019-03-01T23:32:45.356Z,14.20
2019-03-01T23:35:18.146Z,14.20
2019-03-01T23:37:49.887Z,14.30
2019-03-01T23:40:21.338Z,14.30
2019-03-01T23:42:53.453Z,14.30
2019-03-01T23:45:25.319Z,14.30
2019-03-01T23:47:56.148Z,14.30
2019-03-01T23:50:27.294Z,14.30
2019-03-01T23:52:58.916Z,14.30
2019-03-01T23:55:30.850Z,14.20
2019-03-01T23:58:06.064Z,14.20
